Time;durP1;ratioP1;P1;durP2;ratioP2;P2;SDS_P1;SDS_P2;PMS_P1;PMS_P2;Temp;Humidity;BMP_temperature;BMP_pressure;BME280_temperature;BME280_humidity;BME280_pressure;Samples;Min_cycle;Max_cycle;Signal;HPM_P1;HPM_P2
2023/06/13 00:00:29;;;;;;;;;;;;;;;18.46;87.51;99188.97;3166561;28;20373;-73
2023/06/13 00:02:00;;;;;;;;;;;;;;;18.46;87.58;99188.13;3165217;28;19928;-74
2023/06/13 00:03:33;;;;;;;;;;;;;;;18.48;87.36;99188.81;3167020;28;19928;-74
2023/06/13 00:05:05;;;;;;;;;;;;;;;18.48;87.68;99189.66;3166290;28;20427;-73
2023/06/13 00:06:37;;;;;;;;;;;;;;;18.48;87.60;99183.56;3166952;28;19934;-73
2023/06/13 00:08:17;;;;;;;;;;;;;;;18.50;87.48;99184.25;3166609;28;19996;-73
2023/06/13 00:09:49;;;;;;;;;;;;;;;18.51;87.46;99192.03;3167147;28;19928;-73
2023/06/13 00:11:19;;;;;;;;;;;;;;;18.53;87.46;99187.47;3166524;28;19928;-73
2023/06/13 00:12:51;;;;;;;;;;;;;;;18.56;87.14;99191.63;3166571;28;19946;-73
2023/06/13 00:14:24;;;;;;;;;;;;;;;18.57;87.07;99190.66;3166885;28;19928;-73
2023/06/13 00:15:58;;;;;;;;;;;;;;;18.59;87.00;99191.38;3166469;28;19972;-73
2023/06/13 00:17:31;;;;;;;;;;;;;;;18.60;86.67;99183.34;3166643;28;20525;-73
2023/06/13 00:19:03;;;;;;;;;;;;;;;18.63;86.70;99182.19;3166638;28;20041;-73
2023/06/13 00:20:34;;;;;;;;;;;;;;;18.65;86.41;99180.28;3156157;28;20414;-73
2023/06/13 00:22:08;;;;;;;;;;;;;;;18.67;86.29;99173.06;3163434;28;20344;-73
2023/06/13 00:23:41;;;;;;;;;;;;;;;18.68;86.41;99174.72;3166542;28;20022;-73
2023/06/13 00:25:13;;;;;;;;;;;;;;;18.69;86.19;99168.47;3166468;28;19990;-73
2023/06/13 00:26:45;;;;;;;;;;;;;;;18.71;86.20;99169.19;3166412;28;19951;-74
2023/06/13 00:28:16;;;;;;;;;;;;;;;18.73;86.09;99172.56;3166638;28;19993;-73
2023/06/13 00:29:47;;;;;;;;;;;;;;;18.75;85.93;99173.25;3166533;28;19981;-73
2023/06/13 00:31:19;;;;;;;;;;;;;;;18.76;85.94;99167.00;3159656;28;19928;-73
2023/06/13 00:32:54;;;;;;;;;;;;;;;18.79;85.86;99166.72;3166439;28;19927;-73
2023/06/13 00:34:26;;;;;;;;;;;;;;;18.80;85.71;99173.66;3166188;28;19938;-75
2023/06/13 00:35:57;;;;;;;;;;;;;;;18.79;85.65;99177.28;3166550;28;20458;-74
2023/06/13 00:37:34;;;;;;;;;;;;;;;18.80;85.50;99173.66;3166185;28;20392;-73
2023/06/13 00:39:07;;;;;;;;;;;;;;;18.80;85.47;99171.03;3166763;28;19928;-72
2023/06/13 00:40:39;;;;;;;;;;;;;;;18.81;85.24;99169.22;3165865;28;19985;-71
2023/06/13 00:42:11;;;;;;;;;;;;;;;18.80;85.29;99168.38;3166316;28;20409;-71
2023/06/13 00:43:42;;;;;;;;;;;;;;;18.82;85.35;99169.09;3166528;28;19991;-72
2023/06/13 00:45:18;;;;;;;;;;;;;;;18.83;85.29;99162.84;3166127;28;20400;-72
2023/06/13 00:46:50;;;;;;;;;;;;;;;18.85;85.22;99171.44;3154003;28;19932;-72
2023/06/13 00:48:22;;;;;;;;;;;;;;;18.88;85.20;99166.88;3153669;28;19970;-72
2023/06/13 00:49:53;;;;;;;;;;;;;;;18.90;85.28;99165.78;3165750;28;19932;-73
2023/06/13 00:51:27;;;;;;;;;;;;;;;18.91;84.97;99170.06;3165935;28;19927;-72
2023/06/13 00:53:00;;;;;;;;;;;;;;;18.90;85.08;99167.56;3165921;28;20461;-72
2023/06/13 00:54:36;;;;;;;;;;;;;;;18.91;85.02;99169.25;3166061;28;19932;-72
2023/06/13 00:56:08;;;;;;;;;;;;;;;18.91;84.77;99166.59;3165976;28;19933;-72
2023/06/13 00:57:39;;;;;;;;;;;;;;;18.90;84.92;99170.19;3166226;28;19981;-72
2023/06/13 00:59:12;;;;;;;;;;;;;;;18.91;85.00;99169.25;3166195;28;20010;-73
2023/06/13 01:00:44;;;;;;;;;;;;;;;18.92;84.88;99160.34;3165517;28;19963;-72
2023/06/13 01:02:20;;;;;;;;;;;;;;;18.91;84.94;99164.78;3166130;28;19962;-72
2023/06/13 01:03:52;;;;;;;;;;;;;;;18.92;84.74;99153.25;3165796;28;19951;-72
2023/06/13 01:05:28;;;;;;;;;;;;;;;18.93;84.84;99157.59;3166234;28;20439;-73
2023/06/13 01:07:00;;;;;;;;;;;;;;;18.94;84.92;99147.84;3165806;28;19993;-73
2023/06/13 01:08:30;;;;;;;;;;;;;;;18.95;85.02;99155.63;3165998;28;19935;-72
2023/06/13 01:10:04;;;;;;;;;;;;;;;18.94;85.11;99151.31;3166206;28;19928;-73
2023/06/13 01:11:40;;;;;;;;;;;;;;;18.92;85.28;99150.63;3166222;28;19931;-72
2023/06/13 01:13:14;;;;;;;;;;;;;;;18.88;85.50;99149.25;3165902;28;19928;-73
2023/06/13 01:14:51;;;;;;;;;;;;;;;18.86;85.72;99145.91;3165887;28;19934;-72
2023/06/13 01:16:26;;;;;;;;;;;;;;;18.88;85.81;99146.59;3165114;28;19927;-72
2023/06/13 01:18:00;;;;;;;;;;;;;;;18.89;85.69;99142.97;3165647;28;19932;-72
2023/06/13 01:19:37;;;;;;;;;;;;;;;18.90;85.58;99146.44;3165921;28;19927;-73
2023/06/13 01:21:09;;;;;;;;;;;;;;;18.90;86.07;99141.16;3165674;28;19935;-73
2023/06/13 01:22:45;;;;;;;;;;;;;;;18.91;85.95;99145.50;3165614;28;19982;-73
2023/06/13 01:24:20;;;;;;;;;;;;;;;18.92;85.71;99141.88;3165925;28;19927;-72
2023/06/13 01:26:02;;;;;;;;;;;;;;;18.92;85.75;99145.34;3163705;28;20008;-73
2023/06/13 01:27:36;;;;;;;;;;;;;;;18.95;85.79;99146.88;3165996;28;19992;-73
2023/06/13 01:29:09;;;;;;;;;;;;;;;18.94;85.59;99143.41;3165846;28;19980;-72
2023/06/13 01:30:40;;;;;;;;;;;;;;;18.95;85.57;99144.25;3165483;28;19932;-72
2023/06/13 01:32:12;;;;;;;;;;;;;;;18.95;85.63;99149.50;3166053;28;19935;-72
2023/06/13 01:33:44;;;;;;;;;;;;;;;18.94;85.66;99147.84;3165767;28;19928;-72
2023/06/13 01:35:16;;;;;;;;;;;;;;;18.94;85.50;99148.69;3165778;28;19943;-72
2023/06/13 01:36:48;;;;;;;;;;;;;;;18.94;85.58;99153.97;3164869;28;20176;-72
2023/06/13 01:38:20;;;;;;;;;;;;;;;18.94;85.66;99148.69;3165392;28;19958;-72
2023/06/13 01:39:51;;;;;;;;;;;;;;;18.92;85.37;99147.97;3165895;28;19928;-72
2023/06/13 01:41:23;;;;;;;;;;;;;;;18.90;85.62;99144.66;3165862;28;19928;-72
2023/06/13 01:42:56;;;;;;;;;;;;;;;18.88;85.58;99143.13;3165948;28;19950;-74
2023/06/13 01:44:29;;;;;;;;;;;;;;;18.85;85.73;99144.25;3165881;28;19934;-74
2023/06/13 01:46:04;;;;;;;;;;;;;;;18.76;85.49;99129.25;3165763;28;20030;-73
2023/06/13 01:47:39;;;;;;;;;;;;;;;18.85;85.32;99147.72;3165512;28;20422;-73
2023/06/13 01:49:16;;;;;;;;;;;;;;;18.85;85.58;99147.72;3165761;28;19928;-73
2023/06/13 01:50:50;;;;;;;;;;;;;;;18.86;85.24;99141.44;3161197;28;20375;-73
2023/06/13 01:52:27;;;;;;;;;;;;;;;18.88;85.33;99148.41;3158392;28;19928;-72
2023/06/13 01:54:05;;;;;;;;;;;;;;;18.86;85.31;99137.97;3164419;28;19927;-72
2023/06/13 01:55:40;;;;;;;;;;;;;;;18.85;85.52;99142.44;3167626;28;19924;-72
2023/06/13 01:57:12;;;;;;;;;;;;;;;18.86;85.42;99149.38;3170922;28;19996;-72
2023/06/13 01:58:49;;;;;;;;;;;;;;;18.86;85.53;99152.00;3170863;28;19972;-74
2023/06/13 02:00:21;;;;;;;;;;;;;;;18.88;85.48;99151.88;3170453;28;20406;-72
2023/06/13 02:01:55;;;;;;;;;;;;;;;18.88;85.51;99156.31;3170682;28;19928;-73
2023/06/13 02:03:27;;;;;;;;;;;;;;;18.86;85.65;99154.63;3170691;28;19981;-73
2023/06/13 02:04:58;;;;;;;;;;;;;;;18.86;85.62;99156.44;3170989;28;19936;-73
2023/06/13 02:06:30;;;;;;;;;;;;;;;18.86;85.65;99162.56;3170474;28;19931;-74
2023/06/13 02:08:02;;;;;;;;;;;;;;;18.84;85.69;99156.59;3170605;28;19928;-73
2023/06/13 02:09:34;;;;;;;;;;;;;;;18.83;85.75;99162.00;3158748;28;19928;-73
2023/06/13 02:11:04;;;;;;;;;;;;;;;18.81;85.82;99153.38;3170929;28;19924;-73
2023/06/13 02:12:36;;;;;;;;;;;;;;;18.80;85.85;99151.72;3169923;28;19980;-73
2023/06/13 02:14:09;;;;;;;;;;;;;;;18.78;85.83;99151.88;3170517;28;19928;-73
2023/06/13 02:15:41;;;;;;;;;;;;;;;18.78;85.85;99157.16;3170349;28;19947;-73
2023/06/13 02:17:12;;;;;;;;;;;;;;;18.78;85.68;99153.66;3170979;28;19924;-74
2023/06/13 02:18:43;;;;;;;;;;;;;;;18.78;85.80;99153.66;3174406;28;20010;-73
2023/06/13 02:20:14;;;;;;;;;;;;;;;18.76;85.94;99151.16;3175760;28;19924;-73
2023/06/13 02:21:45;;;;;;;;;;;;;;;18.76;85.96;99148.53;3174643;28;19927;-73
2023/06/13 02:23:18;;;;;;;;;;;;;;;18.74;86.07;99145.19;3174111;28;19934;-73
2023/06/13 02:24:49;;;;;;;;;;;;;;;18.72;86.09;99149.72;3173734;28;19923;-73
2023/06/13 02:26:23;;;;;;;;;;;;;;;18.71;86.32;99152.53;3174091;28;19928;-73
2023/06/13 02:27:53;;;;;;;;;;;;;;;18.71;86.50;99153.34;3170716;28;19928;-73
2023/06/13 02:29:26;;;;;;;;;;;;;;;18.71;86.28;99147.25;3170060;28;20429;-73
2023/06/13 02:30:57;;;;;;;;;;;;;;;18.72;86.53;99149.72;3170097;28;20009;-73
2023/06/13 02:32:29;;;;;;;;;;;;;;;18.73;86.40;99150.59;3170293;28;19989;-73
2023/06/13 02:34:01;;;;;;;;;;;;;;;18.74;86.41;99155.75;3170475;28;19931;-73
2023/06/13 02:35:32;;;;;;;;;;;;;;;18.74;86.37;99155.75;3169241;28;19935;-73
2023/06/13 02:37:03;;;;;;;;;;;;;;;18.76;86.43;99155.63;3170389;28;19932;-73
2023/06/13 02:38:36;;;;;;;;;;;;;;;18.74;86.30;99166.28;3170829;28;20089;-73
2023/06/13 02:40:09;;;;;;;;;;;;;;;18.73;86.52;99166.41;3170463;28;19928;-73
2023/06/13 02:41:39;;;;;;;;;;;;;;;18.71;86.66;99165.72;3170432;28;19953;-73
2023/06/13 02:43:11;;;;;;;;;;;;;;;18.69;86.63;99171.09;3170400;28;19924;-73
2023/06/13 02:44:44;;;;;;;;;;;;;;;18.66;86.75;99168.75;3169943;28;20400;-73
2023/06/13 02:46:16;;;;;;;;;;;;;;;18.64;87.13;99168.06;3170283;28;19931;-73
2023/06/13 02:47:46;;;;;;;;;;;;;;;18.62;87.14;99172.63;3170420;28;20040;-73
2023/06/13 02:49:18;;;;;;;;;;;;;;;18.62;87.27;99175.28;3171628;28;20380;-73
2023/06/13 02:50:50;;;;;;;;;;;;;;;18.60;87.28;99178.06;3172884;28;19924;-73
2023/06/13 02:52:23;;;;;;;;;;;;;;;18.57;87.46;99185.38;3172930;28;20324;-73
2023/06/13 02:53:55;;;;;;;;;;;;;;;18.54;87.59;99181.22;3172539;28;19923;-73
2023/06/13 02:55:28;;;;;;;;;;;;;;;18.53;87.69;99184.00;3172931;28;19934;-73
2023/06/13 02:57:00;;;;;;;;;;;;;;;18.51;87.61;99184.13;3173174;28;19985;-72
2023/06/13 02:58:30;;;;;;;;;;;;;;;18.48;87.90;99184.38;3172683;28;19924;-72
2023/06/13 03:00:04;;;;;;;;;;;;;;;18.47;87.88;99188.00;3172828;28;20508;-73
2023/06/13 03:01:36;;;;;;;;;;;;;;;18.44;87.87;99184.81;3172186;28;19931;-72
2023/06/13 03:03:06;;;;;;;;;;;;;;;18.40;87.92;99187.72;3172833;28;19977;-73
2023/06/13 03:04:38;;;;;;;;;;;;;;;18.39;87.91;99191.28;3172836;28;19984;-73
2023/06/13 03:06:11;;;;;;;;;;;;;;;18.36;88.03;99183.66;3172572;28;19931;-73
2023/06/13 03:07:46;;;;;;;;;;;;;;;18.36;87.91;99190.72;3173077;28;19923;-73
2023/06/13 03:09:17;;;;;;;;;;;;;;;18.34;87.72;99188.25;3171287;28;20534;-73
2023/06/13 03:10:50;;;;;;;;;;;;;;;18.34;87.55;99198.78;3172784;28;19928;-73
2023/06/13 03:12:21;;;;;;;;;;;;;;;18.33;87.62;99189.19;3172359;28;20400;-73
2023/06/13 03:13:53;;;;;;;;;;;;;;;18.32;87.37;99192.81;3172485;28;19953;-72
2023/06/13 03:15:27;;;;;;;;;;;;;;;18.32;86.98;99199.88;3172767;28;19930;-72
2023/06/13 03:16:59;;;;;;;;;;;;;;;18.30;87.12;99189.47;3172268;28;19932;-73
2023/06/13 03:18:30;;;;;;;;;;;;;;;18.28;86.81;99193.19;3172263;28;19959;-72
2023/06/13 03:20:03;;;;;;;;;;;;;;;18.25;86.73;99193.47;3169792;28;19924;-73
2023/06/13 03:21:36;;;;;;;;;;;;;;;18.19;86.83;99202.75;3172804;28;19980;-73
2023/06/13 03:23:08;;;;;;;;;;;;;;;18.14;86.73;99203.16;3172342;28;19928;-73
2023/06/13 03:24:40;;;;;;;;;;;;;;;18.09;86.58;99199.22;3163919;28;19928;-70
2023/06/13 03:26:11;;;;;;;;;;;;;;;18.06;86.57;99202.13;3172832;28;19988;-73
2023/06/13 03:27:43;;;;;;;;;;;;;;;17.92;86.67;99180.44;3172136;28;19932;-73
2023/06/13 03:29:15;;;;;;;;;;;;;;;17.99;86.20;99186.03;3172430;28;19924;-73
2023/06/13 03:30:46;;;;;;;;;;;;;;;17.95;86.34;99196.00;3171712;28;19930;-73
2023/06/13 03:32:18;;;;;;;;;;;;;;;17.92;86.28;99193.63;3172381;28;19970;-73
2023/06/13 03:33:50;;;;;;;;;;;;;;;17.91;86.64;99197.19;3172515;28;19988;-73
2023/06/13 03:35:21;;;;;;;;;;;;;;;17.91;86.36;99191.09;3162781;28;19924;-73
2023/06/13 03:36:53;;;;;;;;;;;;;;;17.87;86.52;99189.72;3171896;28;20339;-73
2023/06/13 03:38:27;;;;;;;;;;;;;;;17.82;86.53;99192.72;3172194;28;20336;-73
2023/06/13 03:39:58;;;;;;;;;;;;;;;17.75;86.89;99194.19;3172172;28;19928;-73
2023/06/13 03:41:30;;;;;;;;;;;;;;;17.74;86.92;99197.75;3172125;28;19923;-73
2023/06/13 03:43:01;;;;;;;;;;;;;;;17.74;86.72;99192.50;3172107;28;20448;-73
2023/06/13 03:44:32;;;;;;;;;;;;;;;17.71;86.78;99188.31;3172338;28;20018;-73
2023/06/13 03:46:05;;;;;;;;;;;;;;;17.72;86.58;99197.06;3172017;28;20395;-73
2023/06/13 03:47:37;;;;;;;;;;;;;;;17.60;86.82;99184.91;3168523;28;20313;-73
2023/06/13 03:49:08;;;;;;;;;;;;;;;17.67;86.92;99197.44;3172227;28;19957;-72
2023/06/13 03:50:40;;;;;;;;;;;;;;;17.69;86.73;99197.34;3172198;28;20334;-73
2023/06/13 03:52:11;;;;;;;;;;;;;;;17.73;86.64;99198.75;3171827;28;19928;-71
2023/06/13 03:53:42;;;;;;;;;;;;;;;17.73;86.50;99206.63;3170192;28;20475;-72
2023/06/13 03:55:14;;;;;;;;;;;;;;;17.74;86.67;99195.13;3172264;28;19931;-72
2023/06/13 03:56:46;;;;;;;;;;;;;;;17.77;86.42;99204.56;3171839;28;19963;-72
2023/06/13 03:58:18;;;;;;;;;;;;;;;17.79;86.24;99202.69;3172066;28;19923;-71
2023/06/13 03:59:51;;;;;;;;;;;;;;;17.79;86.11;99208.78;3171677;28;20006;-71
2023/06/13 04:01:24;;;;;;;;;;;;;;;17.80;86.09;99202.53;3171781;28;20456;-72
2023/06/13 04:02:57;;;;;;;;;;;;;;;17.81;85.92;99204.22;3172136;28;19924;-76
2023/06/13 04:04:28;;;;;;;;;;;;;;;17.83;85.82;99212.81;3170754;28;19928;-70
2023/06/13 04:06:00;;;;;;;;;;;;;;;17.84;85.72;99208.41;3160460;28;19947;-71
2023/06/13 04:07:33;;;;;;;;;;;;;;;17.84;85.63;99203.13;3172052;28;19977;-73
2023/06/13 04:09:05;;;;;;;;;;;;;;;17.85;85.48;99216.16;3163249;28;19971;-72
2023/06/13 04:10:37;;;;;;;;;;;;;;;17.87;85.34;99216.06;3159168;28;20007;-72
2023/06/13 04:12:11;;;;;;;;;;;;;;;17.89;85.30;99214.09;3171243;28;20347;-73
2023/06/13 04:13:42;;;;;;;;;;;;;;;17.90;85.16;99219.25;3170441;28;19924;-73
2023/06/13 04:15:14;;;;;;;;;;;;;;;17.92;85.10;99219.09;3170560;28;19932;-71
2023/06/13 04:16:47;;;;;;;;;;;;;;;17.94;85.00;99225.09;3171360;28;20071;-68
2023/06/13 04:18:21;;;;;;;;;;;;;;;17.98;85.13;99225.66;3171605;28;19927;-69
2023/06/13 04:19:52;;;;;;;;;;;;;;;18.00;84.71;99218.47;3171837;28;19924;-69
2023/06/13 04:21:25;;;;;;;;;;;;;;;18.02;84.84;99224.44;3171995;28;19924;-68
2023/06/13 04:22:57;;;;;;;;;;;;;;;18.04;84.77;99230.41;3171704;28;19923;-69
2023/06/13 04:24:27;;;;;;;;;;;;;;;18.03;84.67;99229.56;3172153;28;19954;-68
2023/06/13 04:26:02;;;;;;;;;;;;;;;18.03;84.58;99232.22;3171295;28;19931;-67
2023/06/13 04:27:34;;;;;;;;;;;;;;;18.03;84.35;99231.38;3171611;28;19964;-67
2023/06/13 04:29:06;;;;;;;;;;;;;;;18.01;84.54;99228.03;3171622;28;20034;-66
2023/06/13 04:30:40;;;;;;;;;;;;;;;18.01;84.50;99233.28;3170372;28;19928;-64
2023/06/13 04:32:17;;;;;;;;;;;;;;;18.01;84.49;99236.75;3171671;28;19997;-67
2023/06/13 04:33:48;;;;;;;;;;;;;;;18.00;84.76;99232.47;3171762;28;19977;-67
2023/06/13 04:35:22;;;;;;;;;;;;;;;18.02;84.75;99241.09;3171620;28;19932;-69
2023/06/13 04:36:56;;;;;;;;;;;;;;;18.05;84.51;99232.91;3171516;28;20476;-71
2023/06/13 04:38:29;;;;;;;;;;;;;;;18.08;84.57;99232.66;3171694;28;20015;-69
2023/06/13 04:40:00;;;;;;;;;;;;;;;18.11;84.43;99234.19;3171436;28;20356;-71
2023/06/13 04:41:34;;;;;;;;;;;;;;;18.12;84.37;99235.84;3162245;28;19924;-68
2023/06/13 04:43:06;;;;;;;;;;;;;;;18.11;84.76;99240.31;3168298;28;19927;-67
2023/06/13 04:44:37;;;;;;;;;;;;;;;18.11;84.53;99240.31;3171661;28;19980;-69
2023/06/13 04:46:08;;;;;;;;;;;;;;;18.11;84.60;99236.84;3169976;28;19923;-66
2023/06/13 04:47:41;;;;;;;;;;;;;;;18.11;84.56;99240.31;3171783;28;19950;-67
2023/06/13 04:49:15;;;;;;;;;;;;;;;18.10;84.50;99240.41;3171720;28;20357;-68
2023/06/13 04:50:47;;;;;;;;;;;;;;;18.09;84.93;99238.75;3171134;28;19977;-68
2023/06/13 04:52:23;;;;;;;;;;;;;;;18.05;85.11;99234.72;3171471;28;19927;-71
2023/06/13 04:53:57;;;;;;;;;;;;;;;18.00;85.28;99236.91;3168327;28;19936;-71
2023/06/13 04:55:32;;;;;;;;;;;;;;;17.95;85.67;99237.28;3160531;28;20430;-68
2023/06/13 04:57:05;;;;;;;;;;;;;;;17.91;86.13;99239.34;3169475;28;20358;-68
2023/06/13 04:58:36;;;;;;;;;;;;;;;17.91;86.26;99246.41;3169877;28;19967;-65
2023/06/13 05:00:09;;;;;;;;;;;;;;;17.91;86.19;99244.63;3169435;28;19971;-66
2023/06/13 05:01:43;;;;;;;;;;;;;;;17.93;86.13;99244.50;3168751;28;19935;-68
2023/06/13 05:03:17;;;;;;;;;;;;;;;17.98;86.16;99249.38;3170170;28;20014;-66
2023/06/13 05:04:49;;;;;;;;;;;;;;;17.99;86.02;99253.69;3170721;28;19924;-67
2023/06/13 05:06:21;;;;;;;;;;;;;;;18.02;86.07;99256.06;3171243;28;19924;-69
2023/06/13 05:08:00;;;;;;;;;;;;;;;18.05;85.88;99248.72;3171366;28;19967;-67
2023/06/13 05:09:32;;;;;;;;;;;;;;;18.10;85.85;99253.59;3161906;28;19924;-67
2023/06/13 05:11:04;;;;;;;;;;;;;;;18.14;85.81;99253.22;3167037;28;20408;-69
2023/06/13 05:12:36;;;;;;;;;;;;;;;18.22;85.46;99249.06;3170282;28;19924;-67
2023/06/13 05:14:08;;;;;;;;;;;;;;;18.23;85.64;99248.13;3171288;28;19950;-68
2023/06/13 05:15:42;;;;;;;;;;;;;;;18.22;85.46;99249.94;3170592;28;19970;-67
2023/06/13 05:17:14;;;;;;;;;;;;;;;18.21;85.71;99252.69;3170787;28;19962;-67
2023/06/13 05:18:49;;;;;;;;;;;;;;;18.19;85.60;99255.47;3170822;28;20004;-69
2023/06/13 05:20:22;;;;;;;;;;;;;;;18.20;86.05;99259.75;3163081;28;19964;-68
2023/06/13 05:21:53;;;;;;;;;;;;;;;18.19;86.01;99251.03;3168501;28;19935;-67
2023/06/13 05:23:24;;;;;;;;;;;;;;;18.21;86.21;99255.31;3171241;28;19972;-69
2023/06/13 05:24:59;;;;;;;;;;;;;;;18.21;86.25;99260.59;3171112;28;19977;-73
2023/06/13 05:26:31;;;;;;;;;;;;;;;18.21;86.30;99258.78;3170864;28;20423;-74
2023/06/13 05:28:03;;;;;;;;;;;;;;;18.21;86.71;99271.97;3170781;28;19930;-71
2023/06/13 05:29:35;;;;;;;;;;;;;;;18.22;86.59;99263.13;3170979;28;20431;-73
2023/06/13 05:31:07;;;;;;;;;;;;;;;18.23;86.71;99271.84;3170331;28;19923;-73
2023/06/13 05:32:38;;;;;;;;;;;;;;;18.24;86.83;99271.69;3170823;28;19923;-71
2023/06/13 05:34:12;;;;;;;;;;;;;;;18.29;86.68;99268.69;3170594;28;20472;-72
2023/06/13 05:35:43;;;;;;;;;;;;;;;18.32;86.56;99278.97;3171068;28;19927;-71
2023/06/13 05:37:16;;;;;;;;;;;;;;;18.34;86.54;99275.25;3170707;28;20284;-72
2023/06/13 05:38:48;;;;;;;;;;;;;;;18.39;86.59;99270.38;3170839;28;19981;-72
2023/06/13 05:40:19;;;;;;;;;;;;;;;18.48;86.40;99273.19;3158126;28;19924;-72
2023/06/13 05:41:51;;;;;;;;;;;;;;;18.54;86.10;99276.13;3169975;28;19931;-68
2023/06/13 05:43:22;;;;;;;;;;;;;;;18.61;85.80;99279.09;3170685;28;19934;-67
2023/06/13 05:44:54;;;;;;;;;;;;;;;18.71;85.68;99281.75;3170655;28;19928;-73
2023/06/13 05:46:26;;;;;;;;;;;;;;;18.78;85.35;99278.50;3170342;28;19928;-70
2023/06/13 05:47:57;;;;;;;;;;;;;;;18.88;84.98;99285.59;3170710;28;20442;-71
2023/06/13 05:49:30;;;;;;;;;;;;;;;18.94;85.04;99279.78;3170150;28;19967;-70
2023/06/13 05:51:03;;;;;;;;;;;;;;;18.98;84.85;99289.09;3170350;28;19932;-71
2023/06/13 05:52:35;;;;;;;;;;;;;;;19.00;84.87;99284.50;3170217;28;19928;-68
2023/06/13 05:54:06;;;;;;;;;;;;;;;19.01;84.78;99291.44;3162724;28;19927;-69
2023/06/13 05:55:38;;;;;;;;;;;;;;;19.01;84.98;99283.53;3162825;28;19927;-69
2023/06/13 05:57:11;;;;;;;;;;;;;;;19.01;85.05;99291.44;3170075;28;20320;-68
2023/06/13 05:58:42;;;;;;;;;;;;;;;19.01;85.32;99287.00;3170241;28;19928;-72
2023/06/13 06:00:14;;;;;;;;;;;;;;;19.00;85.15;99292.44;3164716;28;19947;-65
2023/06/13 06:01:46;;;;;;;;;;;;;;;19.01;85.09;99288.81;3170432;28;20362;-70
2023/06/13 06:03:18;;;;;;;;;;;;;;;19.02;85.19;99286.06;3170473;28;19932;-68
2023/06/13 06:04:51;;;;;;;;;;;;;;;19.06;85.17;99290.06;3170030;28;19924;-68
2023/06/13 06:06:23;;;;;;;;;;;;;;;19.15;85.19;99288.44;3170861;28;19932;-70
2023/06/13 06:07:54;;;;;;;;;;;;;;;19.21;85.21;99282.59;3170431;28;19924;-73
2023/06/13 06:09:26;;;;;;;;;;;;;;;19.30;84.87;99275.66;3170318;28;19934;-68
2023/06/13 06:10:58;;;;;;;;;;;;;;;19.39;84.72;99274.00;3169248;28;20428;-71
2023/06/13 06:12:30;;;;;;;;;;;;;;;19.43;84.34;99272.75;3170399;28;19934;-69
2023/06/13 06:14:02;;;;;;;;;;;;;;;19.47;84.42;99274.97;3170586;28;19992;-71
2023/06/13 06:15:34;;;;;;;;;;;;;;;19.52;84.18;99271.91;3170720;28;19931;-71
2023/06/13 06:17:06;;;;;;;;;;;;;;;19.56;83.98;99275.94;3170799;28;19924;-70
2023/06/13 06:18:38;;;;;;;;;;;;;;;19.60;83.72;99281.78;3170123;28;19927;-70
2023/06/13 06:20:11;;;;;;;;;;;;;;;19.59;83.68;99272.22;3169921;28;20435;-71
2023/06/13 06:21:43;;;;;;;;;;;;;;;19.59;83.78;99275.69;3170425;28;19978;-73
2023/06/13 06:23:16;;;;;;;;;;;;;;;19.59;83.78;99274.84;3170493;28;19984;-71
2023/06/13 06:24:48;;;;;;;;;;;;;;;19.59;83.54;99274.84;3169867;28;20617;-71
2023/06/13 06:26:20;;;;;;;;;;;;;;;19.58;83.42;99274.03;3170261;28;19981;-73
2023/06/13 06:27:52;;;;;;;;;;;;;;;19.57;83.68;99274.97;3169490;28;20388;-70
2023/06/13 06:29:23;;;;;;;;;;;;;;;19.58;83.54;99271.38;3169965;28;20374;-68
2023/06/13 06:30:55;;;;;;;;;;;;;;;19.62;83.63;99267.47;3162974;28;19989;-72
2023/06/13 06:32:26;;;;;;;;;;;;;;;19.67;83.34;99275.00;3167576;28;20026;-69
2023/06/13 06:33:57;;;;;;;;;;;;;;;19.73;83.49;99275.28;3169859;28;19947;-72
2023/06/13 06:35:30;;;;;;;;;;;;;;;19.83;83.20;99267.34;3170637;28;20463;-73
2023/06/13 06:37:03;;;;;;;;;;;;;;;19.89;82.65;99273.88;3169746;28;20323;-72
2023/06/13 06:38:35;;;;;;;;;;;;;;;19.88;82.21;99272.22;3170379;28;19928;-73
2023/06/13 06:40:08;;;;;;;;;;;;;;;19.85;82.41;99275.13;3170195;28;20410;-70
2023/06/13 06:41:38;;;;;;;;;;;;;;;19.84;82.65;99269.00;3170258;28;19924;-71
2023/06/13 06:43:10;;;;;;;;;;;;;;;19.85;82.37;99269.84;3170157;28;20404;-73
2023/06/13 06:44:42;;;;;;;;;;;;;;;19.85;82.52;99269.84;3169993;28;19991;-72
2023/06/13 06:46:14;;;;;;;;;;;;;;;19.85;82.40;99262.75;3168365;28;19970;-72
2023/06/13 06:47:45;;;;;;;;;;;;;;;19.86;82.28;99264.41;3170152;28;19934;-72
2023/06/13 06:49:17;;;;;;;;;;;;;;;19.86;82.18;99263.59;3170006;28;20358;-72
2023/06/13 06:50:51;;;;;;;;;;;;;;;19.83;82.16;99261.22;3165157;28;19928;-73
2023/06/13 06:52:22;;;;;;;;;;;;;;;19.83;82.05;99271.78;3169508;28;19993;-71
2023/06/13 06:53:55;;;;;;;;;;;;;;;19.82;82.08;99264.81;3166293;28;20327;-73
2023/06/13 06:55:27;;;;;;;;;;;;;;;19.77;82.26;99265.25;3167982;28;19977;-73
2023/06/13 06:56:58;;;;;;;;;;;;;;;19.78;81.99;99265.09;3169965;28;20465;-75
2023/06/13 06:58:29;;;;;;;;;;;;;;;19.81;81.95;99263.16;3170173;28;19928;-72
2023/06/13 07:00:01;;;;;;;;;;;;;;;19.82;81.72;99267.47;3170438;28;19930;-73
2023/06/13 07:01:33;;;;;;;;;;;;;;;19.83;81.59;99261.22;3165389;28;19939;-73
2023/06/13 07:03:07;;;;;;;;;;;;;;;19.84;81.72;99260.25;3170383;28;19923;-74
2023/06/13 07:04:39;;;;;;;;;;;;;;;19.90;81.58;99267.59;3169991;28;20300;-73
2023/06/13 07:06:13;;;;;;;;;;;;;;;19.99;81.18;99259.69;3162936;28;19928;-75
2023/06/13 07:07:45;;;;;;;;;;;;;;;20.09;80.83;99262.28;3167551;28;20388;-73
2023/06/13 07:09:17;;;;;;;;;;;;;;;20.23;80.43;99260.97;3169023;28;19924;-72
2023/06/13 07:10:48;;;;;;;;;;;;;;;20.34;80.19;99262.63;3170415;28;20297;-73
2023/06/13 07:12:20;;;;;;;;;;;;;;;20.43;79.75;99265.22;3169520;28;20396;-72
2023/06/13 07:13:52;;;;;;;;;;;;;;;20.49;79.50;99257.69;3168732;28;20738;-71
2023/06/13 07:15:23;;;;;;;;;;;;;;;20.58;79.08;99257.66;3170162;28;19964;-72
2023/06/13 07:16:55;;;;;;;;;;;;;;;20.66;78.84;99264.88;3169837;28;20392;-79
2023/06/13 07:18:29;;;;;;;;;;;;;;;20.70;78.12;99266.25;3169717;28;20011;-73
2023/06/13 07:20:05;;;;;;;;;;;;;;;20.76;77.60;99260.34;3170186;28;19928;-72
2023/06/13 07:21:39;;;;;;;;;;;;;;;20.84;77.55;99260.47;3165147;28;19938;-72
2023/06/13 07:23:10;;;;;;;;;;;;;;;20.98;76.92;99264.44;3170184;28;20022;-72
2023/06/13 07:24:42;;;;;;;;;;;;;;;21.12;76.58;99263.09;3170246;28;19928;-73
2023/06/13 07:26:14;;;;;;;;;;;;;;;21.18;75.98;99262.50;3169276;28;20313;-72
2023/06/13 07:27:46;;;;;;;;;;;;;;;21.25;75.84;99263.53;3170063;28;19928;-71
2023/06/13 07:29:17;;;;;;;;;;;;;;;21.30;75.37;99263.09;3170019;28;19930;-73
2023/06/13 07:31:02;;;;;;;;;;;;;;;21.28;74.90;99260.59;3169339;28;19980;-72
2023/06/13 07:32:34;;;;;;;;;;;;;;;21.28;74.32;99262.41;3169467;28;19981;-72
2023/06/13 07:34:11;;;;;;;;;;;;;;;21.29;74.38;99261.41;3169755;28;20305;-73
2023/06/13 07:35:53;;;;;;;;;;;;;;;21.22;74.08;99255.06;3171908;28;19980;-73
2023/06/13 07:37:27;;;;;;;;;;;;;;;21.23;74.30;99256.72;3171749;28;19982;-71
2023/06/13 07:39:04;;;;;;;;;;;;;;;21.24;73.81;99269.00;3172378;28;20416;-72
2023/06/13 07:40:39;;;;;;;;;;;;;;;21.35;74.14;99260.81;3171507;28;19924;-72
2023/06/13 07:42:11;;;;;;;;;;;;;;;21.44;72.97;99267.88;3172315;28;19927;-72
2023/06/13 07:43:46;;;;;;;;;;;;;;;21.55;72.53;99257.06;3172410;28;19928;-78
2023/06/13 07:45:18;;;;;;;;;;;;;;;21.66;72.07;99256.00;3172102;28;20006;-73
2023/06/13 07:46:50;;;;;;;;;;;;;;;21.79;72.09;99263.53;3160803;28;19974;-74
2023/06/13 07:48:32;;;;;;;;;;;;;;;21.91;71.43;99259.66;3171876;28;20425;-75
2023/06/13 07:50:04;;;;;;;;;;;;;;;21.99;70.80;99265.00;3165991;28;19924;-77
2023/06/13 07:51:37;;;;;;;;;;;;;;;22.06;70.38;99264.38;3163259;28;19976;-73
2023/06/13 07:53:10;;;;;;;;;;;;;;;22.08;70.05;99267.72;3165760;28;20512;-75
2023/06/13 07:54:42;;;;;;;;;;;;;;;22.14;70.38;99261.78;3167119;28;19928;-74
2023/06/13 07:56:14;;;;;;;;;;;;;;;22.22;70.22;99259.22;3166622;28;19939;-73
2023/06/13 07:57:46;;;;;;;;;;;;;;;22.30;69.76;99261.91;3166573;28;19934;-73
2023/06/13 07:59:18;;;;;;;;;;;;;;;22.41;69.24;99261.63;3166873;28;19927;-77
2023/06/13 08:00:50;;;;;;;;;;;;;;;22.46;69.04;99264.66;3162140;28;20400;-76
2023/06/13 08:02:22;;;;;;;;;;;;;;;22.50;68.68;99254.56;3165058;28;19928;-81